Time;durP1;ratioP1;P1;durP2;ratioP2;P2;SDS_P1;SDS_P2;PMS_P1;PMS_P2;Temp;Humidity;BMP_temperature;BMP_pressure;BME280_temperature;BME280_humidity;BME280_pressure;Samples;Min_cycle;Max_cycle;Signal;HPM_P1;HPM_P2
2021/08/02 00:01:25;;;;;;;3.25;1.67;;;15.30;80.60;;;;;;5055547;28;20109;-75
2021/08/02 00:03:51;;;;;;;4.32;1.60;;;15.30;80.60;;;;;;5068728;28;20150;-75
2021/08/02 00:06:21;;;;;;;2.88;1.60;;;15.30;80.60;;;;;;5057487;28;20029;-76
2021/08/02 00:08:55;;;;;;;3.90;1.58;;;15.30;80.60;;;;;;5057275;28;20033;-76
2021/08/02 00:11:22;;;;;;;2.78;1.55;;;15.30;80.60;;;;;;5057196;28;20051;-76
2021/08/02 00:13:50;;;;;;;2.85;1.27;;;15.30;80.50;;;;;;5075154;28;20464;-75
2021/08/02 00:16:16;;;;;;;2.28;1.40;;;15.30;80.50;;;;;;5075100;28;20035;-76
2021/08/02 00:18:41;;;;;;;1.63;1.30;;;15.30;80.50;;;;;;5057229;28;20029;-75
2021/08/02 00:21:07;;;;;;;2.55;1.27;;;15.30;80.50;;;;;;5057191;28;20032;-76
2021/08/02 00:23:33;;;;;;;3.50;1.60;;;15.30;80.50;;;;;;5075414;28;20052;-76
2021/08/02 00:26:02;;;;;;;4.00;1.48;;;15.30;80.50;;;;;;5056937;28;20081;-75
2021/08/02 00:28:31;;;;;;;2.08;1.38;;;15.30;80.40;;;;;;5056993;28;20463;-76
2021/08/02 00:30:58;;;;;;;2.13;1.30;;;15.30;80.40;;;;;;5074927;28;20020;-78
2021/08/02 00:33:24;;;;;;;2.13;1.30;;;15.30;80.40;;;;;;5075008;28;20043;-76
2021/08/02 00:35:59;;;;;;;3.17;1.48;;;15.30;80.40;;;;;;5057339;28;20016;-76
2021/08/02 00:38:31;;;;;;;4.57;2.47;;;15.30;80.30;;;;;;5056824;28;20016;-77
2021/08/02 00:41:00;;;;;;;3.55;1.40;;;15.40;80.50;;;;;;5056774;28;20017;-76
2021/08/02 00:43:49;;;;;;;3.13;1.38;;;15.40;80.40;;;;;;5074733;28;20102;-76
2021/08/02 00:46:16;;;;;;;2.67;1.30;;;15.40;80.30;;;;;;5074803;28;20052;-76
2021/08/02 00:49:06;;;;;;;1.92;1.35;;;15.40;80.30;;;;;;5074650;28;20036;-76
2021/08/02 00:51:37;;;;;;;4.18;1.50;;;15.40;80.30;;;;;;5046942;28;20182;-76
2021/08/02 00:54:03;;;;;;;1.80;1.30;;;15.40;80.20;;;;;;5074638;28;20048;-77
2021/08/02 00:56:34;;;;;;;2.25;1.40;;;15.50;80.30;;;;;;5074456;28;20032;-77
2021/08/02 00:59:06;;;;;;;2.58;1.27;;;15.40;80.20;;;;;;5056658;28;20119;-77
2021/08/02 01:01:35;;;;;;;3.00;1.50;;;15.50;80.20;;;;;;5056361;28;20033;-77
2021/08/02 01:04:03;;;;;;;1.85;1.40;;;15.50;80.20;;;;;;5052707;28;20054;-76
2021/08/02 01:06:31;;;;;;;1.60;1.40;;;15.50;80.10;;;;;;5054252;28;20412;-77
2021/08/02 01:09:03;;;;;;;2.47;1.58;;;15.50;80.10;;;;;;5053150;28;20025;-77
2021/08/02 01:11:31;;;;;;;2.08;1.38;;;15.50;80.10;;;;;;5054134;28;20025;-77
2021/08/02 01:13:57;;;;;;;2.90;1.60;;;15.50;80.10;;;;;;5054084;28;20078;-77
2021/08/02 01:16:25;;;;;;;2.88;1.40;;;15.50;80.10;;;;;;5052800;28;20028;-77
2021/08/02 01:18:52;;;;;;;2.75;1.55;;;15.40;80.10;;;;;;5054055;28;20108;-77
2021/08/02 01:21:20;;;;;;;2.15;1.45;;;15.40;80.20;;;;;;5053946;28;20029;-77
2021/08/02 01:23:49;;;;;;;3.05;1.52;;;15.40;80.20;;;;;;5052643;28;20366;-77
2021/08/02 01:26:43;;;;;;;3.38;1.60;;;15.40;80.20;;;;;;5052517;28;20045;-76
2021/08/02 01:29:51;;;;;;;3.53;1.70;;;15.40;80.30;;;;;;5053739;28;20025;-75
2021/08/02 01:32:18;;;;;;;1.95;1.42;;;15.40;80.30;;;;;;5032636;28;20074;-75
2021/08/02 01:34:45;;;;;;;1.88;1.40;;;15.40;80.20;;;;;;5052461;28;20392;-77
2021/08/02 01:37:11;;;;;;;3.92;1.67;;;15.40;80.30;;;;;;5052466;28;20017;-77
2021/08/02 01:39:43;;;;;;;4.03;1.70;;;15.40;80.30;;;;;;5052332;28;20526;-76
2021/08/02 01:42:08;;;;;;;2.25;1.42;;;15.50;80.30;;;;;;5052303;28;20495;-76
2021/08/02 01:44:36;;;;;;;5.32;1.63;;;15.40;80.20;;;;;;5052224;28;20025;-77
2021/08/02 01:47:08;;;;;;;2.88;1.65;;;15.50;80.20;;;;;;5052223;28;20148;-76
2021/08/02 01:49:45;;;;;;;2.83;1.50;;;15.50;80.20;;;;;;5052185;28;20029;-75
2021/08/02 01:52:30;;;;;;;2.65;1.40;;;15.50;80.20;;;;;;5052081;28;20411;-76
2021/08/02 01:55:06;;;;;;;2.92;1.50;;;15.50;80.20;;;;;;5053381;28;20021;-76
2021/08/02 01:57:48;;;;;;;5.95;1.85;;;15.50;80.20;;;;;;5051938;28;20074;-77
2021/08/02 02:00:14;;;;;;;2.55;1.50;;;15.50;80.20;;;;;;5052022;28;20457;-77
2021/08/02 02:02:45;;;;;;;3.28;1.67;;;15.50;80.20;;;;;;5051733;28;20595;-77
2021/08/02 02:05:17;;;;;;;3.50;1.52;;;15.50;80.20;;;;;;5051866;28;20408;-77
2021/08/02 02:07:48;;;;;;;4.57;2.13;;;15.50;80.20;;;;;;5051775;28;20480;-77
2021/08/02 02:10:18;;;;;;;2.45;1.38;;;15.50;80.20;;;;;;5053122;28;20029;-77
2021/08/02 02:12:44;;;;;;;2.30;1.35;;;15.50;80.30;;;;;;5051750;28;20068;-77
2021/08/02 02:15:11;;;;;;;3.05;1.55;;;15.40;80.20;;;;;;5051805;28;20048;-77
2021/08/02 02:17:37;;;;;;;3.05;1.48;;;15.50;80.30;;;;;;5051857;28;20163;-76
2021/08/02 02:20:05;;;;;;;2.05;1.45;;;15.40;80.30;;;;;;5052734;28;20096;-76
2021/08/02 02:22:31;;;;;;;2.42;1.65;;;15.50;80.30;;;;;;5051548;28;20435;-76
2021/08/02 02:24:58;;;;;;;3.65;1.50;;;15.40;80.30;;;;;;5051590;28;20140;-76
2021/08/02 02:27:24;;;;;;;2.85;1.50;;;15.40;80.30;;;;;;5052796;28;20033;-76
2021/08/02 02:29:51;;;;;;;2.55;1.45;;;15.40;80.30;;;;;;5051685;28;20122;-76
2021/08/02 02:32:18;;;;;;;2.20;1.58;;;15.50;80.50;;;;;;5052724;28;20024;-76
2021/08/02 02:34:46;;;;;;;2.78;1.50;;;15.40;80.40;;;;;;5051525;28;20392;-76
2021/08/02 02:37:13;;;;;;;4.70;1.58;;;15.40;80.30;;;;;;5051312;28;20032;-76
2021/08/02 02:39:39;;;;;;;2.30;1.40;;;15.40;80.50;;;;;;5051333;28;20132;-75
2021/08/02 02:42:07;;;;;;;3.75;1.52;;;15.50;80.50;;;;;;5051420;28;20103;-76
2021/08/02 02:44:34;;;;;;;2.75;1.58;;;15.40;80.40;;;;;;5051193;28;20102;-76
2021/08/02 02:47:00;;;;;;;2.78;1.50;;;15.40;80.40;;;;;;5051209;28;20028;-76
2021/08/02 02:49:27;;;;;;;2.75;1.60;;;15.50;80.50;;;;;;5051460;28;20029;-76
2021/08/02 02:51:53;;;;;;;3.03;1.45;;;15.40;80.50;;;;;;5051535;28;20029;-76
2021/08/02 02:54:22;;;;;;;2.60;1.50;;;15.40;80.50;;;;;;5052443;28;20057;-76
2021/08/02 02:56:47;;;;;;;2.15;1.50;;;15.40;80.60;;;;;;5051191;28;20388;-76
2021/08/02 02:59:13;;;;;;;3.53;1.60;;;15.40;80.70;;;;;;5051490;28;20037;-76
2021/08/02 03:01:43;;;;;;;2.80;1.45;;;15.40;80.70;;;;;;5051540;28;20431;-76
2021/08/02 03:04:10;;;;;;;2.00;1.40;;;15.40;80.70;;;;;;5070019;28;20064;-76
2021/08/02 03:06:36;;;;;;;5.10;1.45;;;15.40;80.60;;;;;;5072454;28;20063;-77
2021/08/02 03:09:03;;;;;;;3.83;1.50;;;15.40;80.60;;;;;;5071360;28;20103;-76
2021/08/02 03:11:30;;;;;;;2.38;1.30;;;15.40;80.50;;;;;;5054502;28;20032;-77
2021/08/02 03:13:56;;;;;;;3.58;1.45;;;15.40;80.50;;;;;;5071077;28;20103;-77
2021/08/02 03:16:24;;;;;;;5.05;1.48;;;15.40;80.50;;;;;;5054275;28;20028;-77
2021/08/02 03:18:50;;;;;;;3.53;1.50;;;15.40;80.60;;;;;;5071088;28;20031;-76
2021/08/02 03:21:18;;;;;;;2.35;1.30;;;15.50;80.60;;;;;;5054532;28;20396;-77
2021/08/02 03:24:07;;;;;;;4.03;1.30;;;15.50;80.60;;;;;;5054267;28;20036;-77
2021/08/02 03:26:54;;;;;;;3.28;1.13;;;15.50;80.50;;;;;;5072146;28;20036;-77
2021/08/02 03:29:42;;;;;;;1.30;1.08;;;15.50;80.50;;;;;;5070844;28;20032;-76
2021/08/02 03:32:11;;;;;;;1.65;1.10;;;15.50;80.40;;;;;;5073405;28;20095;-76
2021/08/02 03:34:37;;;;;;;1.67;1.15;;;15.50;80.30;;;;;;5076118;28;20024;-76
2021/08/02 03:37:07;;;;;;;2.85;1.25;;;15.50;80.40;;;;;;5075907;28;20105;-76
2021/08/02 03:39:34;;;;;;;1.42;1.10;;;15.50;80.40;;;;;;5075870;28;20039;-75
2021/08/02 03:42:02;;;;;;;2.15;1.30;;;15.50;80.30;;;;;;5057851;28;20422;-76
2021/08/02 03:44:28;;;;;;;2.85;1.10;;;15.50;80.30;;;;;;5075717;28;20028;-76
2021/08/02 03:46:55;;;;;;;3.53;1.30;;;15.50;80.30;;;;;;5057802;28;20482;-76
2021/08/02 03:49:24;;;;;;;2.97;1.10;;;15.50;80.30;;;;;;5057664;28;20498;-76
2021/08/02 03:51:58;;;;;;;3.05;0.90;;;15.50;80.30;;;;;;5075798;28;20067;-75
2021/08/02 03:54:26;;;;;;;2.45;1.20;;;15.50;80.30;;;;;;5057793;28;20031;-76
2021/08/02 03:56:52;;;;;;;1.75;1.00;;;15.50;80.30;;;;;;5074690;28;20025;-76
2021/08/02 03:59:18;;;;;;;2.28;1.10;;;15.50;80.90;;;;;;5074250;28;20369;-76
2021/08/02 04:01:45;;;;;;;3.25;1.17;;;15.50;80.30;;;;;;5075603;28;20093;-76
2021/08/02 04:04:12;;;;;;;4.05;1.30;;;15.50;80.30;;;;;;5070687;28;20484;-76
2021/08/02 04:06:38;;;;;;;2.25;1.10;;;15.40;80.20;;;;;;5055480;28;20032;-76
2021/08/02 04:09:07;;;;;;;1.88;0.90;;;15.40;80.20;;;;;;5054392;28;20033;-76
2021/08/02 04:11:33;;;;;;;2.50;1.10;;;15.40;80.20;;;;;;5055409;28;20064;-76
2021/08/02 04:13:59;;;;;;;1.45;0.95;;;15.40;80.20;;;;;;5053908;28;20080;-76
2021/08/02 04:16:25;;;;;;;2.92;1.10;;;15.40;80.30;;;;;;5054043;28;20025;-76
2021/08/02 04:18:51;;;;;;;1.45;0.95;;;15.40;80.30;;;;;;5053848;28;20029;-76
2021/08/02 04:21:16;;;;;;;2.15;1.00;;;15.40;80.30;;;;;;5053786;28;20040;-77
2021/08/02 04:23:43;;;;;;;2.45;0.93;;;15.50;80.90;;;;;;5053829;28;20116;-76
2021/08/02 04:26:12;;;;;;;1.20;1.10;;;15.40;80.30;;;;;;5055283;28;20041;-77
2021/08/02 04:28:41;;;;;;;4.00;1.15;;;15.40;80.30;;;;;;5053633;28;20118;-76
2021/08/02 04:31:08;;;;;;;1.92;0.93;;;15.40;80.90;;;;;;5053595;28;20021;-76
2021/08/02 04:33:34;;;;;;;3.58;1.20;;;15.40;80.30;;;;;;5053658;28;20032;-76
2021/08/02 04:35:59;;;;;;;1.02;0.90;;;15.30;80.40;;;;;;5053604;28;20028;-76
2021/08/02 04:41:47;;;;;;;3.47;1.10;;;15.30;80.40;;;;;;5055189;28;20574;-76
2021/08/02 04:44:13;;;;;;;2.40;0.85;;;15.30;80.40;;;;;;5053354;28;20036;-77
2021/08/02 04:46:38;;;;;;;3.85;1.10;;;15.40;80.50;;;;;;5053430;28;20029;-76
2021/08/02 04:49:04;;;;;;;2.40;1.15;;;15.40;80.40;;;;;;5053669;28;20021;-76
2021/08/02 04:51:29;;;;;;;2.25;1.00;;;15.40;80.30;;;;;;5053287;28;20036;-76
2021/08/02 04:53:55;;;;;;;2.55;1.02;;;15.40;80.30;;;;;;5053512;28;20036;-76
2021/08/02 04:56:21;;;;;;;1.85;0.98;;;15.50;80.30;;;;;;5053237;28;20027;-77
2021/08/02 04:58:46;;;;;;;2.15;1.00;;;15.50;80.30;;;;;;5053316;28;20079;-76
2021/08/02 05:01:12;;;;;;;1.42;0.98;;;15.50;80.30;;;;;;5053054;28;20033;-77
2021/08/02 05:03:39;;;;;;;2.38;1.10;;;15.50;80.30;;;;;;5052533;28;20045;-76
2021/08/02 05:06:04;;;;;;;2.35;1.13;;;15.50;80.40;;;;;;5054265;28;20029;-75
2021/08/02 05:08:30;;;;;;;2.95;1.30;;;15.50;80.40;;;;;;5052863;28;20048;-75
2021/08/02 05:10:56;;;;;;;1.95;1.00;;;15.50;80.40;;;;;;5036209;28;20413;-75
2021/08/02 05:13:21;;;;;;;3.35;1.10;;;15.50;80.50;;;;;;5053084;28;20043;-76
2021/08/02 05:15:47;;;;;;;1.20;1.05;;;15.40;80.40;;;;;;5036267;28;20017;-75
2021/08/02 05:18:16;;;;;;;1.60;1.20;;;15.40;80.50;;;;;;5052818;28;20170;-76
2021/08/02 05:20:42;;;;;;;2.50;1.00;;;15.40;80.50;;;;;;5052717;28;20031;-76
2021/08/02 05:23:09;;;;;;;1.80;0.98;;;15.40;80.60;;;;;;5054351;28;20104;-77
2021/08/02 05:25:35;;;;;;;2.00;1.17;;;15.40;80.60;;;;;;5052680;28;20029;-76
2021/08/02 05:28:00;;;;;;;2.17;1.15;;;15.40;80.70;;;;;;5036112;28;20354;-76
2021/08/02 05:30:26;;;;;;;4.15;1.25;;;15.40;80.70;;;;;;5052442;28;20025;-77
2021/08/02 05:32:52;;;;;;;2.47;1.05;;;15.40;80.70;;;;;;5053701;28;20389;-77
2021/08/02 05:35:18;;;;;;;2.15;1.00;;;15.30;80.70;;;;;;5053708;28;20047;-76
2021/08/02 05:37:43;;;;;;;2.63;1.02;;;15.30;80.70;;;;;;5052435;28;20036;-76
2021/08/02 05:40:10;;;;;;;2.13;1.00;;;15.30;80.70;;;;;;5052388;28;20033;-76
2021/08/02 05:42:36;;;;;;;1.98;1.42;;;15.30;80.80;;;;;;5053605;28;20040;-76
2021/08/02 05:48:23;;;;;;;2.10;1.08;;;15.30;80.90;;;;;;5053894;28;20023;-76
2021/08/02 05:50:49;;;;;;;2.88;1.15;;;15.30;80.90;;;;;;5052238;28;20388;-76
2021/08/02 05:53:14;;;;;;;2.00;1.10;;;15.40;80.90;;;;;;5052154;28;20116;-76
2021/08/02 05:55:40;;;;;;;4.25;1.00;;;15.40;80.90;;;;;;5051536;28;20443;-76
2021/08/02 05:58:05;;;;;;;1.33;0.93;;;15.40;80.90;;;;;;5051932;28;20021;-76
2021/08/02 06:00:31;;;;;;;2.55;1.10;;;15.50;80.80;;;;;;5053156;28;20215;-76
2021/08/02 06:02:57;;;;;;;3.00;0.93;;;15.60;80.70;;;;;;5035396;28;20031;-76
2021/08/02 06:05:22;;;;;;;2.53;0.93;;;15.60;80.60;;;;;;5051103;28;20053;-77
2021/08/02 06:07:48;;;;;;;2.97;1.00;;;15.70;80.40;;;;;;5051830;28;20024;-75
2021/08/02 06:10:14;;;;;;;3.25;1.08;;;15.80;80.30;;;;;;5051669;28;20039;-80
2021/08/02 06:12:39;;;;;;;3.70;1.20;;;15.80;80.20;;;;;;5051903;28;20043;-76
2021/08/02 06:15:06;;;;;;;2.95;1.23;;;15.90;80.20;;;;;;5053028;28;20105;-77
2021/08/02 06:17:32;;;;;;;4.38;1.10;;;15.90;80.10;;;;;;5052853;28;20460;-76
2021/08/02 06:19:57;;;;;;;2.35;1.00;;;15.90;80.10;;;;;;5051551;28;20029;-76
2021/08/02 06:22:23;;;;;;;1.58;0.88;;;15.90;80.10;;;;;;5051541;28;20032;-74
2021/08/02 06:24:48;;;;;;;3.83;1.10;;;15.90;80.10;;;;;;5052838;28;20527;-74
2021/08/02 06:27:14;;;;;;;5.40;1.23;;;15.90;80.00;;;;;;5052991;28;20052;-73
2021/08/02 06:29:40;;;;;;;2.38;0.90;;;15.90;80.10;;;;;;5052994;28;20035;-74
2021/08/02 06:32:06;;;;;;;3.60;1.05;;;15.90;80.10;;;;;;5051539;28;20056;-73
2021/08/02 06:34:32;;;;;;;1.75;0.90;;;15.90;80.10;;;;;;5052823;28;20033;-74
2021/08/02 06:36:57;;;;;;;1.67;1.00;;;15.90;80.10;;;;;;5051370;28;20542;-75
2021/08/02 06:39:23;;;;;;;1.75;0.95;;;15.90;80.10;;;;;;5052709;28;20029;-74
2021/08/02 06:41:49;;;;;;;2.75;0.90;;;15.90;80.00;;;;;;5052869;28;20037;-74
2021/08/02 06:44:14;;;;;;;1.63;1.05;;;16.00;80.00;;;;;;5051318;28;20029;-74
2021/08/02 06:46:40;;;;;;;3.85;1.10;;;16.10;79.80;;;;;;5051352;28;20033;-74
2021/08/02 06:49:06;;;;;;;2.42;0.82;;;16.10;79.60;;;;;;5051296;28;20235;-73
2021/08/02 06:51:31;;;;;;;1.90;0.98;;;16.10;79.50;;;;;;5051351;28;20029;-75
2021/08/02 06:53:57;;;;;;;1.92;0.93;;;16.20;79.40;;;;;;5052920;28;20044;-77
2021/08/02 06:56:23;;;;;;;1.88;0.90;;;16.20;79.20;;;;;;5051379;28;20021;-78
2021/08/02 06:58:49;;;;;;;1.83;0.80;;;16.30;79.20;;;;;;5051576;28;20540;-78
2021/08/02 07:01:15;;;;;;;1.95;0.75;;;16.30;79.00;;;;;;5051654;28;20082;-76
2021/08/02 07:03:40;;;;;;;1.75;0.85;;;16.30;78.80;;;;;;5051367;28;20132;-76
2021/08/02 07:06:06;;;;;;;2.50;0.98;;;16.30;78.70;;;;;;5051225;28;20562;-76
2021/08/02 07:08:32;;;;;;;2.72;0.75;;;16.40;78.60;;;;;;5054611;28;20550;-76
2021/08/02 07:10:57;;;;;;;2.03;0.75;;;16.40;78.50;;;;;;5055277;28;20395;-74
2021/08/02 07:13:23;;;;;;;1.02;0.70;;;16.50;78.30;;;;;;5055181;28;20028;-75
2021/08/02 07:15:49;;;;;;;1.80;0.70;;;16.60;78.30;;;;;;5055155;28;20024;-78
2021/08/02 07:18:15;;;;;;;1.60;0.60;;;16.60;78.10;;;;;;5055133;28;20120;-76
2021/08/02 07:20:40;;;;;;;1.70;0.80;;;16.70;78.00;;;;;;5055014;28;20404;-75
2021/08/02 07:23:06;;;;;;;2.35;0.75;;;16.70;77.80;;;;;;5055081;28;20108;-77
2021/08/02 07:25:33;;;;;;;2.88;0.77;;;16.80;77.60;;;;;;5054742;28;20063;-74
2021/08/02 07:27:58;;;;;;;2.47;0.70;;;16.90;77.20;;;;;;5054761;28;20079;-75
2021/08/02 07:30:24;;;;;;;1.63;0.75;;;17.00;77.00;;;;;;5054700;28;20032;-75
2021/08/02 07:32:50;;;;;;;2.45;0.90;;;17.10;76.50;;;;;;5056218;28;20025;-75
2021/08/02 07:35:16;;;;;;;2.55;0.63;;;17.20;76.20;;;;;;5054714;28;20028;-74
2021/08/02 07:37:42;;;;;;;3.20;0.80;;;17.20;75.90;;;;;;5054902;28;20396;-75
2021/08/02 07:40:10;;;;;;;2.92;0.85;;;17.10;75.70;;;;;;5054694;28;20036;-75
2021/08/02 07:42:35;;;;;;;0.95;0.60;;;17.10;75.60;;;;;;5054416;28;20067;-75
2021/08/02 07:45:02;;;;;;;2.10;0.80;;;17.10;75.50;;;;;;5054327;28;20071;-75
2021/08/02 07:47:27;;;;;;;1.45;0.90;;;17.20;75.40;;;;;;5055774;28;20555;-75
2021/08/02 07:49:53;;;;;;;1.15;0.60;;;17.30;75.30;;;;;;5054336;28;20033;-74
2021/08/02 07:52:18;;;;;;;1.40;0.70;;;17.40;75.00;;;;;;5054477;28;20527;-75
2021/08/02 07:54:44;;;;;;;1.58;0.65;;;17.60;74.70;;;;;;5054347;28;20021;-73
2021/08/02 07:57:10;;;;;;;2.30;0.85;;;17.70;74.20;;;;;;5054381;28;20052;-74
2021/08/02 07:59:35;;;;;;;1.65;0.80;;;17.80;73.90;;;;;;5054571;28;20388;-73
2021/08/02 08:02:01;;;;;;;2.78;0.75;;;17.90;73.70;;;;;;5055561;28;20025;-72
2021/08/02 08:04:27;;;;;;;3.00;0.77;;;18.00;73.40;;;;;;5053413;28;20043;-74
2021/08/02 08:06:55;;;;;;;1.15;0.70;;;18.10;72.60;;;;;;5052926;28;20442;-73
2021/08/02 08:09:21;;;;;;;1.38;0.60;;;18.10;72.50;;;;;;5052731;28;20373;-74
2021/08/02 08:11:47;;;;;;;1.73;1.00;;;18.10;72.40;;;;;;5054165;28;20032;-75
2021/08/02 08:14:12;;;;;;;2.63;0.90;;;18.20;72.20;;;;;;5053119;28;20106;-74
2021/08/02 08:16:38;;;;;;;1.80;0.95;;;18.20;72.00;;;;;;5052782;28;20028;-73
2021/08/02 08:19:04;;;;;;;2.15;0.80;;;18.30;71.70;;;;;;5052280;28;20029;-73
2021/08/02 08:21:29;;;;;;;2.38;0.70;;;18.40;71.50;;;;;;5054019;28;20067;-73
2021/08/02 08:23:56;;;;;;;3.03;0.90;;;18.40;71.30;;;;;;5052584;28;20061;-74
2021/08/02 08:26:22;;;;;;;1.50;0.80;;;18.40;70.80;;;;;;5052612;28;20017;-74
2021/08/02 08:28:48;;;;;;;2.08;0.95;;;18.40;71.10;;;;;;5052409;28;20392;-74
2021/08/02 08:31:13;;;;;;;1.80;0.80;;;18.40;71.10;;;;;;5052620;28;20014;-74
2021/08/02 08:33:39;;;;;;;2.97;0.90;;;18.40;71.30;;;;;;5053795;28;20025;-74
2021/08/02 08:36:05;;;;;;;0.70;0.70;;;18.50;71.10;;;;;;5053881;28;20021;-74
2021/08/02 08:38:30;;;;;;;2.33;0.80;;;18.60;70.90;;;;;;5053900;28;20025;-74
2021/08/02 08:40:56;;;;;;;1.35;0.80;;;18.70;70.70;;;;;;5053735;28;20492;-74
2021/08/02 08:43:22;;;;;;;2.30;1.00;;;18.80;69.90;;;;;;5052422;28;20052;-73
2021/08/02 08:45:48;;;;;;;2.75;0.80;;;18.80;69.50;;;;;;5053822;28;20100;-74
2021/08/02 08:48:13;;;;;;;2.80;0.90;;;18.80;69.30;;;;;;5053588;28;20029;-76
2021/08/02 08:50:42;;;;;;;1.90;1.17;;;18.80;69.20;;;;;;5053366;28;20029;-77
2021/08/02 08:53:11;;;;;;;0.80;0.68;;;18.80;69.00;;;;;;5052341;28;20033;-79
2021/08/02 08:55:43;;;;;;;2.70;0.88;;;18.70;68.60;;;;;;5052095;28;20029;-78
2021/08/02 08:58:11;;;;;;;2.30;0.90;;;18.70;68.60;;;;;;5053802;28;20093;-78
2021/08/02 09:00:36;;;;;;;1.40;0.82;;;18.60;69.30;;;;;;5052152;28;20021;-79
2021/08/02 09:03:15;;;;;;;3.70;1.00;;;18.60;68.90;;;;;;5039334;28;1127691;-78
2021/08/02 09:05:41;;;;;;;2.65;0.82;;;18.60;68.70;;;;;;5056475;28;20028;-79
2021/08/02 09:08:12;;;;;;;1.30;0.80;;;18.60;68.70;;;;;;5072832;28;20021;-79
2021/08/02 09:10:38;;;;;;;2.47;0.80;;;18.60;68.60;;;;;;5056589;28;20052;-79
2021/08/02 09:13:05;;;;;;;2.75;0.82;;;18.60;68.60;;;;;;5056285;28;20028;-79
2021/08/02 09:15:47;;;;;;;1.98;0.80;;;18.60;68.60;;;;;;5072937;28;20020;-79
2021/08/02 09:18:21;;;;;;;1.23;0.63;;;18.60;68.50;;;;;;5073008;28;20028;-78
2021/08/02 09:20:46;;;;;;;1.50;0.75;;;18.70;68.60;;;;;;5072667;28;20021;-78
2021/08/02 09:23:15;;;;;;;1.65;0.80;;;18.70;68.50;;;;;;5072694;28;20369;-78
2021/08/02 09:25:52;;;;;;;2.78;0.80;;;18.80;68.40;;;;;;5072572;28;20070;-77
2021/08/02 09:28:23;;;;;;;2.35;0.70;;;19.00;68.30;;;;;;5073750;28;20028;-78
2021/08/02 09:31:00;;;;;;;2.35;0.80;;;19.10;68.20;;;;;;5054892;28;20037;-78
2021/08/02 09:33:27;;;;;;;2.10;0.70;;;19.20;68.00;;;;;;5055678;28;20116;-78
2021/08/02 09:35:53;;;;;;;1.90;0.80;;;19.40;67.80;;;;;;5072484;28;20028;-78
2021/08/02 09:38:20;;;;;;;2.15;0.70;;;19.50;67.50;;;;;;5073620;28;20035;-78
2021/08/02 09:40:50;;;;;;;2.78;0.80;;;19.60;67.20;;;;;;5055741;28;20024;-78
2021/08/02 09:43:20;;;;;;;2.78;0.70;;;19.60;67.20;;;;;;5072468;28;20063;-78
2021/08/02 09:45:52;;;;;;;2.47;1.13;;;19.70;67.00;;;;;;5073566;28;20028;-77
2021/08/02 09:48:19;;;;;;;2.90;1.10;;;19.70;66.80;;;;;;5072221;28;20038;-76
2021/08/02 09:50:47;;;;;;;2.25;0.82;;;19.80;66.80;;;;;;5055365;28;20029;-77
2021/08/02 09:53:18;;;;;;;2.95;0.80;;;19.80;66.60;;;;;;5073443;28;20412;-77
2021/08/02 09:55:46;;;;;;;1.98;0.85;;;19.80;66.10;;;;;;5073404;28;20033;-77
2021/08/02 09:58:18;;;;;;;1.73;0.70;;;19.70;66.20;;;;;;5073310;28;20037;-78
2021/08/02 10:00:45;;;;;;;2.58;0.98;;;19.70;66.20;;;;;;5073434;28;20025;-77
2021/08/02 10:06:34;;;;;;;2.70;0.77;;;19.60;66.40;;;;;;5070789;28;20511;-77
2021/08/02 10:09:01;;;;;;;3.38;1.00;;;19.60;66.30;;;;;;5071800;28;20090;-77
2021/08/02 10:11:27;;;;;;;1.85;0.80;;;19.50;66.40;;;;;;5073131;28;20104;-77
2021/08/02 10:13:53;;;;;;;1.58;0.88;;;19.50;66.40;;;;;;5055090;28;20060;-77
2021/08/02 10:16:26;;;;;;;0.70;0.50;;;19.50;66.30;;;;;;5073026;28;20040;-77
2021/08/02 10:18:52;;;;;;;1.40;0.70;;;19.40;66.20;;;;;;5055392;28;20020;-78
2021/08/02 10:21:19;;;;;;;1.60;0.98;;;19.40;66.40;;;;;;5072990;28;20028;-77
2021/08/02 10:23:45;;;;;;;1.38;0.63;;;19.30;66.30;;;;;;5073003;28;20022;-78
2021/08/02 10:26:20;;;;;;;2.58;1.02;;;19.40;66.50;;;;;;5072738;28;20108;-77
2021/08/02 10:28:56;;;;;;;3.25;0.82;;;19.40;66.30;;;;;;5054679;28;20024;-78
2021/08/02 10:31:26;;;;;;;4.93;0.95;;;19.40;66.40;;;;;;5072814;28;20093;-77
2021/08/02 10:33:52;;;;;;;2.28;0.80;;;19.40;66.40;;;;;;5072595;28;20059;-77
2021/08/02 10:36:20;;;;;;;1.27;0.70;;;19.60;66.20;;;;;;5055011;28;20025;-77
2021/08/02 10:38:49;;;;;;;2.22;1.02;;;19.60;66.00;;;;;;5071467;28;20162;-77
2021/08/02 10:41:27;;;;;;;2.20;0.90;;;19.80;65.90;;;;;;5054463;28;20539;-77
2021/08/02 10:43:54;;;;;;;2.78;0.90;;;20.00;65.40;;;;;;5072743;28;20025;-77
2021/08/02 10:46:27;;;;;;;1.55;0.82;;;20.10;65.00;;;;;;5072880;28;20028;-77
2021/08/02 10:49:06;;;;;;;2.35;0.77;;;20.20;64.70;;;;;;5054557;28;20021;-76
2021/08/02 10:51:32;;;;;;;2.08;0.88;;;20.40;64.50;;;;;;5072668;28;20028;-78
2021/08/02 10:54:02;;;;;;;1.45;0.80;;;20.50;64.30;;;;;;5054703;28;20029;-78
2021/08/02 10:56:30;;;;;;;1.70;0.80;;;20.60;64.10;;;;;;5072668;28;20020;-78
2021/08/02 10:58:57;;;;;;;1.60;0.80;;;20.70;63.80;;;;;;5072686;28;20483;-77
2021/08/02 11:01:26;;;;;;;1.80;0.90;;;20.90;62.90;;;;;;5071346;28;20025;-77
2021/08/02 11:03:55;;;;;;;1.05;0.80;;;20.90;62.50;;;;;;5072440;28;20136;-77
2021/08/02 11:06:22;;;;;;;1.38;1.00;;;21.10;62.20;;;;;;5054497;28;20110;-78
2021/08/02 11:08:54;;;;;;;2.10;1.17;;;21.20;62.00;;;;;;5054476;28;20137;-77
2021/08/02 11:11:29;;;;;;;2.95;0.80;;;21.30;61.60;;;;;;5055127;28;20115;-78
2021/08/02 11:14:11;;;;;;;2.45;1.08;;;21.40;61.20;;;;;;5054779;28;20024;-78
2021/08/02 11:16:44;;;;;;;2.67;0.90;;;21.40;60.60;;;;;;5072882;28;20032;-78
2021/08/02 11:19:30;;;;;;;3.03;0.85;;;21.40;60.70;;;;;;5054436;28;20040;-78
2021/08/02 11:21:56;;;;;;;1.30;0.82;;;21.30;60.80;;;;;;5054374;28;20029;-78
2021/08/02 11:24:21;;;;;;;3.33;0.88;;;21.30;60.90;;;;;;5054516;28;20428;-78
2021/08/02 11:26:55;;;;;;;1.52;0.65;;;21.30;60.90;;;;;;5072643;28;20037;-77
2021/08/02 11:29:22;;;;;;;1.25;0.70;;;21.20;60.30;;;;;;5072341;28;20086;-77
2021/08/02 11:31:56;;;;;;;1.23;0.88;;;21.20;60.30;;;;;;5072269;28;20024;-78
2021/08/02 11:34:22;;;;;;;1.67;0.80;;;21.10;59.70;;;;;;5072311;28;20044;-77
2021/08/02 11:37:05;;;;;;;3.33;0.77;;;21.10;59.90;;;;;;5072345;28;20074;-78
2021/08/02 11:39:33;;;;;;;1.15;0.77;;;21.20;59.50;;;;;;5054379;28;20086;-78
2021/08/02 11:42:10;;;;;;;1.30;0.80;;;21.20;59.20;;;;;;5072151;28;20032;-78
2021/08/02 11:44:38;;;;;;;2.58;0.98;;;21.20;59.50;;;;;;5072069;28;20039;-78
2021/08/02 11:47:07;;;;;;;2.90;0.85;;;21.20;59.40;;;;;;5053986;28;20024;-78
2021/08/02 11:49:38;;;;;;;1.77;1.00;;;21.20;59.30;;;;;;5072115;28;20058;-77
2021/08/02 11:52:05;;;;;;;2.00;0.75;;;21.20;59.20;;;;;;5071882;28;20115;-78
2021/08/02 11:54:30;;;;;;;1.65;0.88;;;21.20;57.90;;;;;;5057270;28;20027;-77
2021/08/02 11:56:56;;;;;;;1.90;0.77;;;21.10;57.80;;;;;;5075754;28;20028;-78
2021/08/02 11:59:24;;;;;;;0.98;0.60;;;21.10;57.30;;;;;;5057776;28;20115;-78
2021/08/02 12:01:52;;;;;;;0.88;0.65;;;21.10;57.10;;;;;;5057547;28;20052;-78
2021/08/02 12:04:19;;;;;;;0.80;0.63;;;21.20;57.10;;;;;;5057744;28;20112;-77
2021/08/02 12:06:57;;;;;;;1.90;0.93;;;21.40;57.20;;;;;;5053852;28;20041;-77
2021/08/02 12:09:33;;;;;;;0.77;0.70;;;21.50;56.60;;;;;;5053988;28;20029;-77
2021/08/02 12:12:04;;;;;;;1.30;0.90;;;21.60;56.20;;;;;;5055223;28;20021;-78
2021/08/02 12:14:31;;;;;;;1.13;0.77;;;21.70;56.40;;;;;;5055257;28;20071;-77
2021/08/02 12:17:09;;;;;;;2.00;0.70;;;21.80;56.40;;;;;;5053892;28;20484;-77
2021/08/02 12:19:50;;;;;;;1.45;0.57;;;21.90;56.20;;;;;;5053886;28;20033;-77
2021/08/02 12:22:18;;;;;;;1.02;0.70;;;22.00;55.60;;;;;;5053864;28;20037;-77
2021/08/02 12:24:54;;;;;;;1.27;0.82;;;22.00;55.50;;;;;;5053667;28;20036;-76
2021/08/02 12:27:21;;;;;;;0.80;0.70;;;22.00;55.00;;;;;;5055009;28;20029;-77
2021/08/02 12:29:57;;;;;;;1.38;0.68;;;22.10;55.00;;;;;;5054867;28;20366;-77
2021/08/02 12:32:34;;;;;;;0.60;0.60;;;22.10;54.80;;;;;;5055059;28;20029;-77
2021/08/02 12:35:00;;;;;;;1.60;0.80;;;22.20;54.60;;;;;;5053781;28;20043;-78
2021/08/02 12:37:25;;;;;;;1.13;0.70;;;22.20;54.60;;;;;;5053810;28;20029;-78
2021/08/02 12:39:54;;;;;;;1.85;0.70;;;22.30;54.00;;;;;;5054916;28;20048;-79
2021/08/02 12:42:25;;;;;;;1.45;0.88;;;22.30;54.10;;;;;;5053646;28;20492;-78
2021/08/02 12:44:51;;;;;;;2.15;1.13;;;22.50;54.10;;;;;;5054426;28;20039;-78
2021/08/02 12:47:17;;;;;;;1.67;1.10;;;22.50;53.50;;;;;;5053591;28;20028;-78
2021/08/02 12:49:42;;;;;;;1.42;0.88;;;22.40;53.60;;;;;;5053525;28;20033;-78
2021/08/02 12:52:08;;;;;;;1.02;0.80;;;22.30;53.70;;;;;;5053465;28;20535;-78
2021/08/02 12:54:33;;;;;;;1.85;0.90;;;22.20;53.90;;;;;;5054911;28;20435;-78
2021/08/02 12:56:59;;;;;;;0.70;0.60;;;22.00;54.00;;;;;;5054647;28;20029;-78
2021/08/02 12:59:25;;;;;;;1.95;0.82;;;21.80;54.30;;;;;;5053316;28;20032;-78
2021/08/02 13:01:50;;;;;;;0.88;0.80;;;21.60;54.50;;;;;;5053338;28;20499;-78
2021/08/02 13:04:18;;;;;;;1.27;0.80;;;21.50;54.50;;;;;;5052106;28;20036;-77